aviador You're here:

CYEG Decoded Metar

EDMONTON in AB, CANADA
Report Time2018-07-23 11:00:00
UTC Time2018-07-23 11:39:58
Flight Rules vfr VFR
Wind240° at 02 kt
W.Decomp.*RWY 20: 1.8 kt HW 0.8 kt RCW
RWY 30: 0.4 kt HW 1.9 kt LCW
W.Rank240° ranks 24
Current wind is below 240° avg. (5.4)
Visibility9999 m
Phenomena:N/A
Clouds:Broken 084 Hf
Broken 120 Hf
Broken 150 Hf
Broken 240 Hf
Expected CloudBase > 400 ft AGL from Temp-Dew spread
Ceiling8,400 ft
Temp09°C (ISA -1)
Dew Point08°C (94% RH)
AAT7.8°C
QNH1026 hPa
Density Alt1,936 ft
Elevation2,372 ft
Report Wrong Elevation
Raw Report
CYEG 231100Z 24002KT 15SM BKN084 BKN120 BKN150 BKN240 09/08 A3030
RMK ACC5AC1AC1CI1 CI TR SLP274=

Extra information for CYEG:More info

Metar Taf Metar & Taf Last 4 Metars F.Rules Stats Wind Profile Meteogram Temp Stats Airport Information Weather charts Add Link Nearby VenuesMetar ALERT Operation Metar Decoded Social comments